This is the latest recevied weather packets stored in our database for station/object SP2MHC-2. If no packets are shown the sender has not sent any weather packets the latest 10 day(s).
| Time | Temp. | Humidity | Pressure | Rain* | Wind** | Luminosity | Snow |
|---|---|---|---|---|---|---|---|
| 1777488036 | 1.67° C | 49% | 1028 hPa | - | - | - | - |
| 1777488031 | 1.67° C | 49% | 1028 hPa | - | - | - | - |
| 1777487132 | 2.22° C | 49% | 1027.9 hPa | - | - | - | - |
| 1777487131 | 2.22° C | 49% | 1027.9 hPa | - | - | - | - |
| 1777486290 | 2.78° C | 48% | 1027.8 hPa | - | - | - | - |
| 1777486236 | 2.78° C | 48% | 1027.8 hPa | - | - | - | - |
| 1777486231 | 2.78° C | 48% | 1027.8 hPa | - | - | - | - |
| 1777484492 | 4.44° C | 44% | 1027.8 hPa | - | - | - | - |
| 1777315242 | 2.22° C | 63% | 1021.6 hPa | - | - | - | - |
| 1777315208 | 2.22° C | 63% | 1021.6 hPa | - | - | - | - |
| 1777314354 | 2.78° C | 61% | 1021.4 hPa | - | - | - | - |
| 1777314308 | 2.78° C | 61% | 1021.4 hPa | - | - | - | - |
| 1777313408 | 2.78° C | 60% | 1021.3 hPa | - | - | - | - |
| 1777312507 | 3.89° C | 59% | 1021.3 hPa | - | - | - | - |
| 1777311607 | 4.44° C | 53% | 1021.2 hPa | - | - | - | - |
| 1777310707 | 5° C | 49% | 1021.1 hPa | - | - | - | - |
| 1777309807 | 5.56° C | 49% | 1020.9 hPa | - | - | - | - |
| 1777308907 | 6.67° C | 47% | 1020.9 hPa | - | - | - | - |
| 1777308007 | 6.67° C | 46% | 1020.8 hPa | - | - | - | - |
| 1777307107 | 6.67° C | 46% | 1020.7 hPa | - | - | - | - |
| 1777306206 | 7.22° C | 45% | 1020.5 hPa | - | - | - | - |
| 1777305306 | 7.22° C | 44% | 1020.6 hPa | - | - | - | - |
| 1777304517 | 7.22° C | 42% | 1020.4 hPa | - | - | - | - |
| 1777304406 | 7.22° C | 42% | 1020.4 hPa | - | - | - | - |
| 1777303548 | 7.78° C | 40% | 1020.3 hPa | - | - | - | - |
* Rain since midnight (hover to see other rain measurements)
** Current wind speed in m/s (hover to see current wind gust speed)